sensor_id;sensor_type;location;lat;lon;timestamp;temperature;humidity
70928;SHT31;58587;53.034;18.576;2023-09-07T00:00:21;17.11;83.80
70928;SHT31;58587;53.034;18.576;2023-09-07T00:02:46;17.07;84.05
70928;SHT31;58587;53.034;18.576;2023-09-07T00:05:12;17.07;83.91
70928;SHT31;58587;53.034;18.576;2023-09-07T00:07:38;17.03;84.11
70928;SHT31;58587;53.034;18.576;2023-09-07T00:10:04;17.03;84.08
70928;SHT31;58587;53.034;18.576;2023-09-07T00:12:30;16.99;84.25
70928;SHT31;58587;53.034;18.576;2023-09-07T00:14:55;16.95;84.41
70928;SHT31;58587;53.034;18.576;2023-09-07T00:17:22;16.93;84.36
70928;SHT31;58587;53.034;18.576;2023-09-07T00:19:48;16.88;84.55
70928;SHT31;58587;53.034;18.576;2023-09-07T00:22:17;16.85;84.60
70928;SHT31;58587;53.034;18.576;2023-09-07T00:24:44;16.84;84.66
70928;SHT31;58587;53.034;18.576;2023-09-07T00:27:10;16.81;84.67
70928;SHT31;58587;53.034;18.576;2023-09-07T00:29:37;16.79;84.68
70928;SHT31;58587;53.034;18.576;2023-09-07T00:32:03;16.73;84.83
70928;SHT31;58587;53.034;18.576;2023-09-07T00:34:29;16.71;84.91
70928;SHT31;58587;53.034;18.576;2023-09-07T00:36:54;16.69;84.89
70928;SHT31;58587;53.034;18.576;2023-09-07T00:39:19;16.66;84.96
70928;SHT31;58587;53.034;18.576;2023-09-07T00:41:45;16.64;85.10
70928;SHT31;58587;53.034;18.576;2023-09-07T00:44:10;16.60;85.16
70928;SHT31;58587;53.034;18.576;2023-09-07T00:46:36;16.55;85.12
70928;SHT31;58587;53.034;18.576;2023-09-07T00:49:02;16.55;85.22
70928;SHT31;58587;53.034;18.576;2023-09-07T00:51:27;16.50;85.19
70928;SHT31;58587;53.034;18.576;2023-09-07T00:53:54;16.49;85.35
70928;SHT31;58587;53.034;18.576;2023-09-07T00:56:19;16.46;85.44
70928;SHT31;58587;53.034;18.576;2023-09-07T00:58:45;16.43;85.40
70928;SHT31;58587;53.034;18.576;2023-09-07T01:01:11;16.39;85.67
70928;SHT31;58587;53.034;18.576;2023-09-07T01:03:36;16.36;85.75
70928;SHT31;58587;53.034;18.576;2023-09-07T01:06:07;16.33;85.55
70928;SHT31;58587;53.034;18.576;2023-09-07T01:08:52;16.30;85.68
70928;SHT31;58587;53.034;18.576;2023-09-07T01:11:21;16.26;85.95
70928;SHT31;58587;53.034;18.576;2023-09-07T01:13:48;16.25;86.15
70928;SHT31;58587;53.034;18.576;2023-09-07T01:16:14;16.23;86.22
70928;SHT31;58587;53.034;18.576;2023-09-07T01:18:39;16.22;86.16
70928;SHT31;58587;53.034;18.576;2023-09-07T01:21:06;16.20;86.19
70928;SHT31;58587;53.034;18.576;2023-09-07T01:23:37;16.20;86.33
70928;SHT31;58587;53.034;18.576;2023-09-07T01:26:05;16.18;86.12
70928;SHT31;58587;53.034;18.576;2023-09-07T01:28:30;16.15;86.22
70928;SHT31;58587;53.034;18.576;2023-09-07T01:30:56;16.10;86.34
70928;SHT31;58587;53.034;18.576;2023-09-07T01:33:22;16.10;86.43
70928;SHT31;58587;53.034;18.576;2023-09-07T01:35:48;16.09;86.54
70928;SHT31;58587;53.034;18.576;2023-09-07T01:38:13;16.05;86.40
70928;SHT31;58587;53.034;18.576;2023-09-07T01:40:39;16.05;86.55
70928;SHT31;58587;53.034;18.576;2023-09-07T01:43:04;16.04;86.42
70928;SHT31;58587;53.034;18.576;2023-09-07T01:45:29;16.01;86.63
70928;SHT31;58587;53.034;18.576;2023-09-07T01:47:55;15.99;86.47
70928;SHT31;58587;53.034;18.576;2023-09-07T01:50:20;15.98;86.64
70928;SHT31;58587;53.034;18.576;2023-09-07T01:52:48;15.95;86.70
70928;SHT31;58587;53.034;18.576;2023-09-07T01:55:14;15.89;86.78
70928;SHT31;58587;53.034;18.576;2023-09-07T01:57:39;15.89;86.94
70928;SHT31;58587;53.034;18.576;2023-09-07T02:00:05;15.85;87.02
70928;SHT31;58587;53.034;18.576;2023-09-07T02:02:31;15.82;87.03
70928;SHT31;58587;53.034;18.576;2023-09-07T02:04:56;15.81;87.00
70928;SHT31;58587;53.034;18.576;2023-09-07T02:07:22;15.81;87.01
70928;SHT31;58587;53.034;18.576;2023-09-07T02:09:47;15.75;86.93
70928;SHT31;58587;53.034;18.576;2023-09-07T02:12:13;15.74;87.15
70928;SHT31;58587;53.034;18.576;2023-09-07T02:14:38;15.74;87.15
70928;SHT31;58587;53.034;18.576;2023-09-07T02:17:04;15.71;87.04
70928;SHT31;58587;53.034;18.576;2023-09-07T02:19:29;15.71;87.24
70928;SHT31;58587;53.034;18.576;2023-09-07T02:21:55;15.67;87.22
70928;SHT31;58587;53.034;18.576;2023-09-07T02:24:20;15.64;87.39
70928;SHT31;58587;53.034;18.576;2023-09-07T02:26:46;15.59;87.39
70928;SHT31;58587;53.034;18.576;2023-09-07T02:29:14;15.59;87.18
70928;SHT31;58587;53.034;18.576;2023-09-07T02:31:40;15.58;87.37
70928;SHT31;58587;53.034;18.576;2023-09-07T02:34:05;15.54;87.59
70928;SHT31;58587;53.034;18.576;2023-09-07T02:36:31;15.53;87.54
70928;SHT31;58587;53.034;18.576;2023-09-07T02:38:56;15.48;87.58
70928;SHT31;58587;53.034;18.576;2023-09-07T02:41:22;15.48;87.66
70928;SHT31;58587;53.034;18.576;2023-09-07T02:43:47;15.45;87.78
70928;SHT31;58587;53.034;18.576;2023-09-07T02:46:13;15.41;87.67
70928;SHT31;58587;53.034;18.576;2023-09-07T02:48:38;15.41;87.83
70928;SHT31;58587;53.034;18.576;2023-09-07T02:51:03;15.38;87.73
70928;SHT31;58587;53.034;18.576;2023-09-07T02:53:29;15.40;87.74
70928;SHT31;58587;53.034;18.576;2023-09-07T02:55:55;15.37;87.76
70928;SHT31;58587;53.034;18.576;2023-09-07T02:58:21;15.34;87.80
70928;SHT31;58587;53.034;18.576;2023-09-07T03:00:47;15.33;88.04
70928;SHT31;58587;53.034;18.576;2023-09-07T03:03:13;15.33;87.95
70928;SHT31;58587;53.034;18.576;2023-09-07T03:05:40;15.33;88.17
70928;SHT31;58587;53.034;18.576;2023-09-07T03:08:06;15.31;88.16
70928;SHT31;58587;53.034;18.576;2023-09-07T03:10:32;15.27;88.00
70928;SHT31;58587;53.034;18.576;2023-09-07T03:12:57;15.26;88.38
70928;SHT31;58587;53.034;18.576;2023-09-07T03:15:23;15.26;88.38
70928;SHT31;58587;53.034;18.576;2023-09-07T03:17:48;15.20;88.32
70928;SHT31;58587;53.034;18.576;2023-09-07T03:20:14;15.22;88.22
70928;SHT31;58587;53.034;18.576;2023-09-07T03:22:43;15.22;88.27
70928;SHT31;58587;53.034;18.576;2023-09-07T03:25:09;15.19;88.35
70928;SHT31;58587;53.034;18.576;2023-09-07T03:27:35;15.16;88.38
70928;SHT31;58587;53.034;18.576;2023-09-07T03:30:01;15.13;88.42
70928;SHT31;58587;53.034;18.576;2023-09-07T03:32:27;15.14;88.45
70928;SHT31;58587;53.034;18.576;2023-09-07T03:34:58;15.13;88.59
70928;SHT31;58587;53.034;18.576;2023-09-07T03:37:23;15.10;88.53
70928;SHT31;58587;53.034;18.576;2023-09-07T03:39:48;15.06;88.39
70928;SHT31;58587;53.034;18.576;2023-09-07T03:42:14;15.03;88.58
70928;SHT31;58587;53.034;18.576;2023-09-07T03:44:40;15.02;88.42
70928;SHT31;58587;53.034;18.576;2023-09-07T03:47:05;14.97;88.45
70928;SHT31;58587;53.034;18.576;2023-09-07T03:49:30;14.94;88.49
70928;SHT31;58587;53.034;18.576;2023-09-07T03:51:56;14.99;88.58
70928;SHT31;58587;53.034;18.576;2023-09-07T03:54:21;14.96;88.58
70928;SHT31;58587;53.034;18.576;2023-09-07T03:56:46;14.93;88.66
70928;SHT31;58587;53.034;18.576;2023-09-07T03:59:12;14.92;88.66
70928;SHT31;58587;53.034;18.576;2023-09-07T04:01:37;14.90;88.81
70928;SHT31;58587;53.034;18.576;2023-09-07T04:04:03;14.90;88.72
70928;SHT31;58587;53.034;18.576;2023-09-07T04:06:28;14.92;88.90
70928;SHT31;58587;53.034;18.576;2023-09-07T04:08:53;14.90;88.69
70928;SHT31;58587;53.034;18.576;2023-09-07T04:11:19;14.92;88.81
70928;SHT31;58587;53.034;18.576;2023-09-07T04:13:44;14.87;88.92
70928;SHT31;58587;53.034;18.576;2023-09-07T04:16:10;14.92;89.11
70928;SHT31;58587;53.034;18.576;2023-09-07T04:18:35;14.90;89.24
70928;SHT31;58587;53.034;18.576;2023-09-07T04:21:07;14.90;89.26
70928;SHT31;58587;53.034;18.576;2023-09-07T04:23:33;14.93;89.39
70928;SHT31;58587;53.034;18.576;2023-09-07T04:26:09;14.97;89.67
70928;SHT31;58587;53.034;18.576;2023-09-07T04:28:35;14.99;89.52
70928;SHT31;58587;53.034;18.576;2023-09-07T04:31:02;15.03;90.02
70928;SHT31;58587;53.034;18.576;2023-09-07T04:33:30;15.03;90.13
70928;SHT31;58587;53.034;18.576;2023-09-07T04:35:56;15.08;90.20
70928;SHT31;58587;53.034;18.576;2023-09-07T04:38:21;15.13;90.34
70928;SHT31;58587;53.034;18.576;2023-09-07T04:40:46;15.14;90.31
70928;SHT31;58587;53.034;18.576;2023-09-07T04:43:12;15.20;90.33
70928;SHT31;58587;53.034;18.576;2023-09-07T04:45:45;15.24;90.53
70928;SHT31;58587;53.034;18.576;2023-09-07T04:48:11;15.28;90.26
70928;SHT31;58587;53.034;18.576;2023-09-07T04:50:37;15.27;90.44
70928;SHT31;58587;53.034;18.576;2023-09-07T04:53:02;15.34;90.32
70928;SHT31;58587;53.034;18.576;2023-09-07T04:55:28;15.37;90.48
70928;SHT31;58587;53.034;18.576;2023-09-07T04:57:53;15.41;90.28
70928;SHT31;58587;53.034;18.576;2023-09-07T05:00:18;15.40;90.07
70928;SHT31;58587;53.034;18.576;2023-09-07T05:02:44;15.45;90.53
70928;SHT31;58587;53.034;18.576;2023-09-07T05:05:09;15.53;90.39
70928;SHT31;58587;53.034;18.576;2023-09-07T05:07:35;15.55;90.11
70928;SHT31;58587;53.034;18.576;2023-09-07T05:10:00;15.59;90.20
70928;SHT31;58587;53.034;18.576;2023-09-07T05:12:26;15.65;89.94
70928;SHT31;58587;53.034;18.576;2023-09-07T05:14:51;15.67;90.20
70928;SHT31;58587;53.034;18.576;2023-09-07T05:17:16;15.69;90.19
70928;SHT31;58587;53.034;18.576;2023-09-07T05:19:42;15.69;89.95
70928;SHT31;58587;53.034;18.576;2023-09-07T05:22:07;15.74;89.93
70928;SHT31;58587;53.034;18.576;2023-09-07T05:24:33;15.78;90.16
70928;SHT31;58587;53.034;18.576;2023-09-07T05:26:58;15.85;90.05
70928;SHT31;58587;53.034;18.576;2023-09-07T05:29:24;15.88;90.02
70928;SHT31;58587;53.034;18.576;2023-09-07T05:31:49;15.91;90.14
70928;SHT31;58587;53.034;18.576;2023-09-07T05:34:14;15.96;89.99
70928;SHT31;58587;53.034;18.576;2023-09-07T05:36:40;16.02;89.88
70928;SHT31;58587;53.034;18.576;2023-09-07T05:39:05;16.04;89.51
70928;SHT31;58587;53.034;18.576;2023-09-07T05:41:31;16.08;89.34
70928;SHT31;58587;53.034;18.576;2023-09-07T05:43:57;16.15;89.40
70928;SHT31;58587;53.034;18.576;2023-09-07T05:46:22;16.19;89.37
70928;SHT31;58587;53.034;18.576;2023-09-07T05:48:47;16.19;89.32
70928;SHT31;58587;53.034;18.576;2023-09-07T05:51:13;16.26;89.33
70928;SHT31;58587;53.034;18.576;2023-09-07T05:53:39;16.32;89.28
70928;SHT31;58587;53.034;18.576;2023-09-07T05:56:04;16.36;89.12
70928;SHT31;58587;53.034;18.576;2023-09-07T05:58:30;16.40;89.00
70928;SHT31;58587;53.034;18.576;2023-09-07T06:00:55;16.45;88.83
70928;SHT31;58587;53.034;18.576;2023-09-07T06:03:20;16.53;88.73
70928;SHT31;58587;53.034;18.576;2023-09-07T06:05:46;16.60;88.68
70928;SHT31;58587;53.034;18.576;2023-09-07T06:08:11;16.64;88.54
70928;SHT31;58587;53.034;18.576;2023-09-07T06:10:37;16.70;88.61
70928;SHT31;58587;53.034;18.576;2023-09-07T06:13:03;16.76;88.39
70928;SHT31;58587;53.034;18.576;2023-09-07T06:15:29;16.79;88.46
70928;SHT31;58587;53.034;18.576;2023-09-07T06:17:55;16.84;88.34
70928;SHT31;58587;53.034;18.576;2023-09-07T06:20:20;16.91;88.33
70928;SHT31;58587;53.034;18.576;2023-09-07T06:22:46;16.93;88.11
70928;SHT31;58587;53.034;18.576;2023-09-07T06:25:11;17.00;88.39
70928;SHT31;58587;53.034;18.576;2023-09-07T06:27:36;17.07;88.00
70928;SHT31;58587;53.034;18.576;2023-09-07T06:30:04;17.10;88.02
70928;SHT31;58587;53.034;18.576;2023-09-07T06:32:30;17.15;87.84
70928;SHT31;58587;53.034;18.576;2023-09-07T06:34:55;17.25;87.77
70928;SHT31;58587;53.034;18.576;2023-09-07T06:37:21;17.34;87.45
70928;SHT31;58587;53.034;18.576;2023-09-07T06:39:46;17.39;87.79
70928;SHT31;58587;53.034;18.576;2023-09-07T06:42:11;17.48;87.49
70928;SHT31;58587;53.034;18.576;2023-09-07T06:44:37;17.52;87.29
70928;SHT31;58587;53.034;18.576;2023-09-07T06:47:02;17.58;86.91
70928;SHT31;58587;53.034;18.576;2023-09-07T06:49:28;17.64;86.83
70928;SHT31;58587;53.034;18.576;2023-09-07T06:51:57;17.68;86.78
70928;SHT31;58587;53.034;18.576;2023-09-07T06:54:23;17.76;86.60
70928;SHT31;58587;53.034;18.576;2023-09-07T06:56:48;17.83;86.39
70928;SHT31;58587;53.034;18.576;2023-09-07T06:59:14;17.90;86.25
70928;SHT31;58587;53.034;18.576;2023-09-07T07:01:39;17.96;86.18
70928;SHT31;58587;53.034;18.576;2023-09-07T07:04:05;18.06;86.19
70928;SHT31;58587;53.034;18.576;2023-09-07T07:06:30;18.22;86.36
70928;SHT31;58587;53.034;18.576;2023-09-07T07:08:56;18.30;85.80
70928;SHT31;58587;53.034;18.576;2023-09-07T07:11:21;18.43;85.82
70928;SHT31;58587;53.034;18.576;2023-09-07T07:13:46;18.60;85.76
70928;SHT31;58587;53.034;18.576;2023-09-07T07:16:12;18.74;85.70
70928;SHT31;58587;53.034;18.576;2023-09-07T07:18:38;18.85;85.27
70928;SHT31;58587;53.034;18.576;2023-09-07T07:21:05;18.97;84.89
70928;SHT31;58587;53.034;18.576;2023-09-07T07:23:30;19.10;84.84
70928;SHT31;58587;53.034;18.576;2023-09-07T07:25:56;19.19;84.13
70928;SHT31;58587;53.034;18.576;2023-09-07T07:28:21;19.31;84.09
70928;SHT31;58587;53.034;18.576;2023-09-07T07:30:46;19.39;84.18
70928;SHT31;58587;53.034;18.576;2023-09-07T07:33:13;19.43;83.05
70928;SHT31;58587;53.034;18.576;2023-09-07T07:35:39;19.55;82.64
70928;SHT31;58587;53.034;18.576;2023-09-07T07:38:05;19.62;82.87
70928;SHT31;58587;53.034;18.576;2023-09-07T07:40:31;19.73;82.78
70928;SHT31;58587;53.034;18.576;2023-09-07T07:42:56;19.83;82.56
70928;SHT31;58587;53.034;18.576;2023-09-07T07:45:22;19.92;82.33
70928;SHT31;58587;53.034;18.576;2023-09-07T07:47:51;20.03;82.05
70928;SHT31;58587;53.034;18.576;2023-09-07T07:50:17;20.12;81.95
70928;SHT31;58587;53.034;18.576;2023-09-07T07:52:43;20.21;81.34
70928;SHT31;58587;53.034;18.576;2023-09-07T07:55:09;20.31;81.45
70928;SHT31;58587;53.034;18.576;2023-09-07T07:57:35;20.40;81.05
70928;SHT31;58587;53.034;18.576;2023-09-07T08:00:00;20.48;80.55
70928;SHT31;58587;53.034;18.576;2023-09-07T08:02:26;20.57;80.58
70928;SHT31;58587;53.034;18.576;2023-09-07T08:04:51;20.68;80.55
70928;SHT31;58587;53.034;18.576;2023-09-07T08:07:17;20.77;80.23
70928;SHT31;58587;53.034;18.576;2023-09-07T08:09:42;20.82;79.70
70928;SHT31;58587;53.034;18.576;2023-09-07T08:12:08;20.94;79.64
70928;SHT31;58587;53.034;18.576;2023-09-07T08:14:33;21.03;79.29
70928;SHT31;58587;53.034;18.576;2023-09-07T08:16:59;21.12;78.85
70928;SHT31;58587;53.034;18.576;2023-09-07T08:19:25;21.20;78.84
70928;SHT31;58587;53.034;18.576;2023-09-07T08:21:53;21.28;77.44
70928;SHT31;58587;53.034;18.576;2023-09-07T08:24:18;21.33;77.27
70928;SHT31;58587;53.034;18.576;2023-09-07T08:26:43;21.43;77.83
70928;SHT31;58587;53.034;18.576;2023-09-07T08:29:09;21.56;78.23
70928;SHT31;58587;53.034;18.576;2023-09-07T08:31:36;21.64;77.78
70928;SHT31;58587;53.034;18.576;2023-09-07T08:34:04;21.73;77.37
70928;SHT31;58587;53.034;18.576;2023-09-07T08:36:30;21.80;76.84
70928;SHT31;58587;53.034;18.576;2023-09-07T08:38:59;21.91;76.85
70928;SHT31;58587;53.034;18.576;2023-09-07T08:41:26;21.97;77.23
70928;SHT31;58587;53.034;18.576;2023-09-07T08:43:53;22.04;76.32
70928;SHT31;58587;53.034;18.576;2023-09-07T08:46:19;22.13;76.42
70928;SHT31;58587;53.034;18.576;2023-09-07T08:48:46;22.22;76.20
70928;SHT31;58587;53.034;18.576;2023-09-07T08:51:12;22.31;75.84
70928;SHT31;58587;53.034;18.576;2023-09-07T08:53:40;22.35;75.63
70928;SHT31;58587;53.034;18.576;2023-09-07T08:56:06;22.40;75.20
70928;SHT31;58587;53.034;18.576;2023-09-07T08:58:36;22.49;75.56
70928;SHT31;58587;53.034;18.576;2023-09-07T09:01:01;22.55;75.27
70928;SHT31;58587;53.034;18.576;2023-09-07T09:03:26;22.62;74.51
70928;SHT31;58587;53.034;18.576;2023-09-07T09:05:55;22.72;73.78
70928;SHT31;58587;53.034;18.576;2023-09-07T09:08:21;22.81;73.92
70928;SHT31;58587;53.034;18.576;2023-09-07T09:10:58;22.89;73.73
70928;SHT31;58587;53.034;18.576;2023-09-07T09:13:30;23.02;74.25
70928;SHT31;58587;53.034;18.576;2023-09-07T09:15:58;23.10;74.33
70928;SHT31;58587;53.034;18.576;2023-09-07T09:18:24;23.16;73.47
70928;SHT31;58587;53.034;18.576;2023-09-07T09:20:51;23.24;74.49
70928;SHT31;58587;53.034;18.576;2023-09-07T09:23:17;23.34;74.26
70928;SHT31;58587;53.034;18.576;2023-09-07T09:25:42;23.40;72.47
70928;SHT31;58587;53.034;18.576;2023-09-07T09:28:09;23.46;73.74
70928;SHT31;58587;53.034;18.576;2023-09-07T09:30:35;23.50;73.57
70928;SHT31;58587;53.034;18.576;2023-09-07T09:33:01;23.54;73.44
70928;SHT31;58587;53.034;18.576;2023-09-07T09:35:28;23.57;73.29
70928;SHT31;58587;53.034;18.576;2023-09-07T09:37:55;23.66;73.02
70928;SHT31;58587;53.034;18.576;2023-09-07T09:40:20;23.70;73.26
70928;SHT31;58587;53.034;18.576;2023-09-07T09:42:46;23.75;72.62
70928;SHT31;58587;53.034;18.576;2023-09-07T09:45:12;23.82;72.93
70928;SHT31;58587;53.034;18.576;2023-09-07T09:47:40;23.96;73.06
70928;SHT31;58587;53.034;18.576;2023-09-07T09:50:07;24.02;72.87
70928;SHT31;58587;53.034;18.576;2023-09-07T09:52:37;24.11;72.31
70928;SHT31;58587;53.034;18.576;2023-09-07T09:55:04;24.20;71.82
70928;SHT31;58587;53.034;18.576;2023-09-07T09:57:32;24.36;72.26
70928;SHT31;58587;53.034;18.576;2023-09-07T09:59:59;24.43;71.55
70928;SHT31;58587;53.034;18.576;2023-09-07T10:02:25;24.52;70.10
70928;SHT31;58587;53.034;18.576;2023-09-07T10:04:52;24.61;70.90
70928;SHT31;58587;53.034;18.576;2023-09-07T10:07:19;24.72;71.12
70928;SHT31;58587;53.034;18.576;2023-09-07T10:09:44;24.86;70.57
70928;SHT31;58587;53.034;18.576;2023-09-07T10:12:13;24.92;70.00
70928;SHT31;58587;53.034;18.576;2023-09-07T10:14:39;25.04;69.98
70928;SHT31;58587;53.034;18.576;2023-09-07T10:17:06;25.16;70.14
70928;SHT31;58587;53.034;18.576;2023-09-07T10:19:31;25.27;69.13
70928;SHT31;58587;53.034;18.576;2023-09-07T10:21:57;25.34;68.87
70928;SHT31;58587;53.034;18.576;2023-09-07T10:24:26;25.48;69.32
70928;SHT31;58587;53.034;18.576;2023-09-07T10:27:18;25.63;69.00
70928;SHT31;58587;53.034;18.576;2023-09-07T10:29:46;25.70;68.19
70928;SHT31;58587;53.034;18.576;2023-09-07T10:32:13;25.70;65.92
70928;SHT31;58587;53.034;18.576;2023-09-07T10:34:40;25.80;65.32
70928;SHT31;58587;53.034;18.576;2023-09-07T10:37:12;25.82;63.95
70928;SHT31;58587;53.034;18.576;2023-09-07T10:39:43;25.89;63.80
70928;SHT31;58587;53.034;18.576;2023-09-07T10:42:22;25.97;64.75
70928;SHT31;58587;53.034;18.576;2023-09-07T10:44:49;26.02;63.81
70928;SHT31;58587;53.034;18.576;2023-09-07T10:47:17;26.09;64.07
70928;SHT31;58587;53.034;18.576;2023-09-07T10:49:43;26.15;62.99
70928;SHT31;58587;53.034;18.576;2023-09-07T10:52:09;26.06;60.22
70928;SHT31;58587;53.034;18.576;2023-09-07T10:54:35;26.17;61.77
70928;SHT31;58587;53.034;18.576;2023-09-07T10:57:11;26.28;64.13
70928;SHT31;58587;53.034;18.576;2023-09-07T10:59:38;26.38;63.34
70928;SHT31;58587;53.034;18.576;2023-09-07T11:02:09;26.42;61.85
70928;SHT31;58587;53.034;18.576;2023-09-07T11:04:34;26.46;61.00
70928;SHT31;58587;53.034;18.576;2023-09-07T11:06:59;26.57;60.94
70928;SHT31;58587;53.034;18.576;2023-09-07T11:09:26;26.72;61.27
70928;SHT31;58587;53.034;18.576;2023-09-07T11:11:51;26.87;60.02
70928;SHT31;58587;53.034;18.576;2023-09-07T11:14:16;27.03;61.07
70928;SHT31;58587;53.034;18.576;2023-09-07T11:16:42;27.10;57.86
70928;SHT31;58587;53.034;18.576;2023-09-07T11:19:08;27.27;58.90
70928;SHT31;58587;53.034;18.576;2023-09-07T11:21:34;27.38;57.46
70928;SHT31;58587;53.034;18.576;2023-09-07T11:24:01;27.45;58.36
70928;SHT31;58587;53.034;18.576;2023-09-07T11:26:40;27.37;57.60
70928;SHT31;58587;53.034;18.576;2023-09-07T11:29:05;27.41;58.44
70928;SHT31;58587;53.034;18.576;2023-09-07T11:31:31;27.31;57.41
70928;SHT31;58587;53.034;18.576;2023-09-07T11:33:56;27.24;58.67
70928;SHT31;58587;53.034;18.576;2023-09-07T11:36:21;27.14;59.17
70928;SHT31;58587;53.034;18.576;2023-09-07T11:38:49;27.04;58.90
70928;SHT31;58587;53.034;18.576;2023-09-07T11:41:15;26.92;58.86
70928;SHT31;58587;53.034;18.576;2023-09-07T11:43:40;26.82;57.35
70928;SHT31;58587;53.034;18.576;2023-09-07T11:46:07;26.69;57.91
70928;SHT31;58587;53.034;18.576;2023-09-07T11:48:33;26.68;58.62
70928;SHT31;58587;53.034;18.576;2023-09-07T11:50:59;26.56;57.09
70928;SHT31;58587;53.034;18.576;2023-09-07T11:53:25;26.55;57.78
70928;SHT31;58587;53.034;18.576;2023-09-07T11:55:50;26.55;58.92
70928;SHT31;58587;53.034;18.576;2023-09-07T11:58:16;26.50;59.29
70928;SHT31;58587;53.034;18.576;2023-09-07T12:00:41;26.78;59.38
70928;SHT31;58587;53.034;18.576;2023-09-07T12:03:07;27.04;59.43
70928;SHT31;58587;53.034;18.576;2023-09-07T12:05:32;26.94;58.23
70928;SHT31;58587;53.034;18.576;2023-09-07T12:07:58;26.87;58.14
70928;SHT31;58587;53.034;18.576;2023-09-07T12:10:23;26.83;58.75
70928;SHT31;58587;53.034;18.576;2023-09-07T12:12:48;26.79;59.05
70928;SHT31;58587;53.034;18.576;2023-09-07T12:15:14;26.72;56.90
70928;SHT31;58587;53.034;18.576;2023-09-07T12:17:40;26.68;58.46
70928;SHT31;58587;53.034;18.576;2023-09-07T12:20:06;26.62;58.73
70928;SHT31;58587;53.034;18.576;2023-09-07T12:22:35;26.83;60.04
70928;SHT31;58587;53.034;18.576;2023-09-07T12:25:03;26.92;61.19
70928;SHT31;58587;53.034;18.576;2023-09-07T12:27:32;27.66;59.75
70928;SHT31;58587;53.034;18.576;2023-09-07T12:29:58;28.43;53.62
70928;SHT31;58587;53.034;18.576;2023-09-07T12:32:23;28.96;55.01
70928;SHT31;58587;53.034;18.576;2023-09-07T12:34:49;29.10;54.39
70928;SHT31;58587;53.034;18.576;2023-09-07T12:37:18;29.86;51.23
70928;SHT31;58587;53.034;18.576;2023-09-07T12:39:44;30.63;51.67
70928;SHT31;58587;53.034;18.576;2023-09-07T12:42:09;31.32;47.61
70928;SHT31;58587;53.034;18.576;2023-09-07T12:44:35;32.06;47.80
70928;SHT31;58587;53.034;18.576;2023-09-07T12:47:00;32.54;44.80
70928;SHT31;58587;53.034;18.576;2023-09-07T12:49:25;33.31;43.87
70928;SHT31;58587;53.034;18.576;2023-09-07T12:51:52;33.88;40.83
70928;SHT31;58587;53.034;18.576;2023-09-07T12:54:17;34.54;41.88
70928;SHT31;58587;53.034;18.576;2023-09-07T12:56:43;35.04;39.14
70928;SHT31;58587;53.034;18.576;2023-09-07T12:59:10;35.35;36.75
70928;SHT31;58587;53.034;18.576;2023-09-07T13:01:35;35.81;36.69
70928;SHT31;58587;53.034;18.576;2023-09-07T13:04:00;36.17;36.21
70928;SHT31;58587;53.034;18.576;2023-09-07T13:06:26;36.60;35.10
70928;SHT31;58587;53.034;18.576;2023-09-07T13:08:51;36.80;36.69
70928;SHT31;58587;53.034;18.576;2023-09-07T13:11:17;37.17;35.52
70928;SHT31;58587;53.034;18.576;2023-09-07T13:13:43;37.70;36.02
70928;SHT31;58587;53.034;18.576;2023-09-07T13:16:08;38.12;34.57
70928;SHT31;58587;53.034;18.576;2023-09-07T13:18:34;38.68;35.62
70928;SHT31;58587;53.034;18.576;2023-09-07T13:21:00;38.81;33.50
70928;SHT31;58587;53.034;18.576;2023-09-07T13:23:27;39.25;33.39
70928;SHT31;58587;53.034;18.576;2023-09-07T13:25:52;39.42;31.44
70928;SHT31;58587;53.034;18.576;2023-09-07T13:28:18;39.51;32.55
70928;SHT31;58587;53.034;18.576;2023-09-07T13:30:43;39.69;32.18
70928;SHT31;58587;53.034;18.576;2023-09-07T13:33:08;39.77;33.20
70928;SHT31;58587;53.034;18.576;2023-09-07T13:35:34;40.07;31.18
70928;SHT31;58587;53.034;18.576;2023-09-07T13:37:59;40.27;31.33
70928;SHT31;58587;53.034;18.576;2023-09-07T13:40:25;39.62;31.40
70928;SHT31;58587;53.034;18.576;2023-09-07T13:42:54;38.36;33.53
70928;SHT31;58587;53.034;18.576;2023-09-07T13:45:19;37.73;35.88
70928;SHT31;58587;53.034;18.576;2023-09-07T13:47:46;36.91;34.16
70928;SHT31;58587;53.034;18.576;2023-09-07T13:50:11;36.03;36.93
70928;SHT31;58587;53.034;18.576;2023-09-07T13:52:37;35.17;38.66
70928;SHT31;58587;53.034;18.576;2023-09-07T13:55:02;34.32;40.51
70928;SHT31;58587;53.034;18.576;2023-09-07T13:57:28;33.68;41.00
70928;SHT31;58587;53.034;18.576;2023-09-07T13:59:53;33.56;42.28
70928;SHT31;58587;53.034;18.576;2023-09-07T14:02:18;34.80;39.92
70928;SHT31;58587;53.034;18.576;2023-09-07T14:04:44;35.63;36.53
70928;SHT31;58587;53.034;18.576;2023-09-07T14:07:09;36.23;36.15
70928;SHT31;58587;53.034;18.576;2023-09-07T14:09:34;36.60;34.70
70928;SHT31;58587;53.034;18.576;2023-09-07T14:12:00;37.11;34.96
70928;SHT31;58587;53.034;18.576;2023-09-07T14:14:25;37.29;33.17
70928;SHT31;58587;53.034;18.576;2023-09-07T14:16:51;37.54;35.29
70928;SHT31;58587;53.034;18.576;2023-09-07T14:19:21;37.62;34.84
70928;SHT31;58587;53.034;18.576;2023-09-07T14:21:47;37.75;35.26
70928;SHT31;58587;53.034;18.576;2023-09-07T14:24:12;37.85;33.90
70928;SHT31;58587;53.034;18.576;2023-09-07T14:26:38;38.24;34.04
70928;SHT31;58587;53.034;18.576;2023-09-07T14:29:03;38.21;33.31
70928;SHT31;58587;53.034;18.576;2023-09-07T14:31:30;37.89;34.37
70928;SHT31;58587;53.034;18.576;2023-09-07T14:33:55;37.73;35.19
70928;SHT31;58587;53.034;18.576;2023-09-07T14:36:20;37.62;33.91
70928;SHT31;58587;53.034;18.576;2023-09-07T14:38:46;37.61;35.10
70928;SHT31;58587;53.034;18.576;2023-09-07T14:41:11;37.68;34.34
70928;SHT31;58587;53.034;18.576;2023-09-07T14:43:43;37.38;34.92
70928;SHT31;58587;53.034;18.576;2023-09-07T14:46:09;36.81;35.61
70928;SHT31;58587;53.034;18.576;2023-09-07T14:48:34;36.33;35.75
70928;SHT31;58587;53.034;18.576;2023-09-07T14:51:00;35.82;35.98
70928;SHT31;58587;53.034;18.576;2023-09-07T14:53:25;35.10;37.54
70928;SHT31;58587;53.034;18.576;2023-09-07T14:55:50;34.46;38.58
70928;SHT31;58587;53.034;18.576;2023-09-07T14:58:16;33.82;39.95
70928;SHT31;58587;53.034;18.576;2023-09-07T15:00:41;33.35;42.23
70928;SHT31;58587;53.034;18.576;2023-09-07T15:03:07;32.78;40.99
70928;SHT31;58587;53.034;18.576;2023-09-07T15:05:32;32.39;43.06
70928;SHT31;58587;53.034;18.576;2023-09-07T15:07:57;31.85;43.81